Mary Rose Brusco — WDE2412 — position and weather

sailwx.info

Track history (hours):
 
Tides and Currents Weather Stations Pressure Air Temp Water Temp Dewpoint Dewpoint Depression Visibility Wind Speed Wind Dir Waves Ship Positions

Mary Rose Brusco

Owner: Brusco Tug & Barge, Inc., Longview, WA. More information available from US FCC via Universal Licensing System and Coast Guard Vessel Documentation Center.

Last reported at 2015-Feb-24 15:33 UTC. Time now 2015-Feb-27 13:09 UTC.
Position N 47°58' W 122°15'.

Length 20 m; draft 3 m.

Type: Towing. MMSI: 367324840.

Date/timePositionNaut miles runAvg speedWind from/ knotsBaromVisibWave heightAir tempDewpointWater temp
2015-Feb-24 15:33N 47°58' W 122°15'1 1.4
2015-Feb-24 14:33N 47°59' W 122°13'0 0.2
2015-Feb-24 13:33N 47°59' W 122°13'0 0.0
2015-Feb-24 12:33N 47°59' W 122°13'0 0.0
2015-Feb-24 11:33N 47°59' W 122°13'0 0.0
2015-Feb-24 10:33N 47°59' W 122°13'0 0.0
2015-Feb-24 09:33N 47°59' W 122°13'0 0.0
2015-Feb-24 08:33N 47°59' W 122°13'0 0.0
2015-Feb-24 07:33N 47°59' W 122°13'0 0.0
2015-Feb-24 06:33N 47°59' W 122°13'0 0.0
2015-Feb-24 05:33N 47°59' W 122°13'0 0.0
2015-Feb-24 04:33N 47°59' W 122°13'0 0.0
2015-Feb-24 03:33N 47°59' W 122°13'0 0.0
2015-Feb-24 02:33N 47°59' W 122°13'0 0.0
2015-Feb-24 01:33N 47°59' W 122°13'0 0.0
2015-Feb-24 00:33N 47°59' W 122°13'0 0.0
2015-Feb-23 23:33N 47°59' W 122°13'0 0.0
2015-Feb-23 22:33N 47°59' W 122°13'0 0.0
2015-Feb-23 21:33N 47°59' W 122°13'0 0.0
2015-Feb-23 20:33N 47°59' W 122°13'0 0.0
2015-Feb-23 19:33N 47°59' W 122°13'0 0.0
2015-Feb-23 18:33N 47°59' W 122°13'0 0.0
2015-Feb-23 17:33N 47°59' W 122°13'0 0.0
2015-Feb-23 16:33N 47°59' W 122°13'0 0.2
2015-Feb-23 15:33N 47°59' W 122°13'2 1.8
2015-Feb-23 14:33N 47°58' W 122°16'  
2015-Feb-20 16:32N 47°59' W 122°13'0 0.2
2015-Feb-20 15:33N 47°59' W 122°13'2 1.8
2015-Feb-20 14:32N 47°58' W 122°16'2 0.0
2015-Feb-18 21:04N 47°59' W 122°13'3 6.1
2015-Feb-18 20:33N 47°57' W 122°17'3 0.6
2015-Feb-18 15:33N 47°59' W 122°13'1 0.8
2015-Feb-18 14:28N 47°58' W 122°15'0 0.0
2015-Feb-17 19:33N 47°58' W 122°15'1 0.7
2015-Feb-17 17:33N 47°59' W 122°13'  
Track history (hours):
 
Tides and Currents Weather Stations Pressure Air Temp Water Temp Dewpoint Dewpoint Depression Visibility Wind Speed Wind Dir Waves Ship Positions

Mary Rose Brusco

Owner: Brusco Tug & Barge, Inc., Longview, WA. More information available from US FCC via Universal Licensing System and Coast Guard Vessel Documentation Center.

Last reported at 2015-Feb-24 15:33 UTC. Time now 2015-Feb-27 13:09 UTC.
Position N 47°58' W 122°15'.

Length 20 m; draft 3 m.

Type: Towing. MMSI: 367324840.

Date/timePositionNaut miles runAvg speedWind from/ knotsBaromVisibWave heightAir tempDewpointWater temp
2015-Feb-24 15:33N 47°58' W 122°15'1 1.4
2015-Feb-24 14:33N 47°59' W 122°13'0 0.2
2015-Feb-24 13:33N 47°59' W 122°13'0 0.0
2015-Feb-24 12:33N 47°59' W 122°13'0 0.0
2015-Feb-24 11:33N 47°59' W 122°13'0 0.0
2015-Feb-24 10:33N 47°59' W 122°13'0 0.0
2015-Feb-24 09:33N 47°59' W 122°13'0 0.0
2015-Feb-24 08:33N 47°59' W 122°13'0 0.0
2015-Feb-24 07:33N 47°59' W 122°13'0 0.0
2015-Feb-24 06:33N 47°59' W 122°13'0 0.0
2015-Feb-24 05:33N 47°59' W 122°13'0 0.0
2015-Feb-24 04:33N 47°59' W 122°13'0 0.0
2015-Feb-24 03:33N 47°59' W 122°13'0 0.0
2015-Feb-24 02:33N 47°59' W 122°13'0 0.0
2015-Feb-24 01:33N 47°59' W 122°13'0 0.0
2015-Feb-24 00:33N 47°59' W 122°13'0 0.0
2015-Feb-23 23:33N 47°59' W 122°13'0 0.0
2015-Feb-23 22:33N 47°59' W 122°13'0 0.0
2015-Feb-23 21:33N 47°59' W 122°13'0 0.0
2015-Feb-23 20:33N 47°59' W 122°13'0 0.0
2015-Feb-23 19:33N 47°59' W 122°13'0 0.0
2015-Feb-23 18:33N 47°59' W 122°13'0 0.0
2015-Feb-23 17:33N 47°59' W 122°13'0 0.0
2015-Feb-23 16:33N 47°59' W 122°13'0 0.2
2015-Feb-23 15:33N 47°59' W 122°13'2 1.8
2015-Feb-23 14:33N 47°58' W 122°16'  
2015-Feb-20 16:32N 47°59' W 122°13'0 0.2
2015-Feb-20 15:33N 47°59' W 122°13'2 1.8
2015-Feb-20 14:32N 47°58' W 122°16'2 0.0
2015-Feb-18 21:04N 47°59' W 122°13'3 6.1
2015-Feb-18 20:33N 47°57' W 122°17'3 0.6
2015-Feb-18 15:33N 47°59' W 122°13'1 0.8
2015-Feb-18 14:28N 47°58' W 122°15'0 0.0
2015-Feb-17 19:33N 47°58' W 122°15'1 0.7
2015-Feb-17 17:33N 47°59' W 122°13'  

Dump ship's entire track history